createdAt,value
2019-01-15T00:00:46.767Z,89.27
2019-01-15T00:01:52.812Z,89.17
2019-01-15T00:02:58.923Z,88.62
2019-01-15T00:04:04.550Z,88.83
2019-01-15T00:05:10.550Z,88.22
2019-01-15T00:06:16.902Z,88.02
2019-01-15T00:07:22.889Z,88.24
2019-01-15T00:08:29.288Z,88.13
2019-01-15T00:09:35.709Z,88.32
2019-01-15T00:10:42.022Z,88.25
2019-01-15T00:11:48.389Z,87.64
2019-01-15T00:12:54.772Z,86.97
2019-01-15T00:14:01.876Z,87.20
2019-01-15T00:15:08.222Z,87.38
2019-01-15T00:16:14.580Z,87.75
2019-01-15T00:17:20.892Z,87.97
2019-01-15T00:18:27.217Z,88.30
2019-01-15T00:19:33.567Z,88.46
2019-01-15T00:20:40.066Z,88.16
2019-01-15T00:21:46.453Z,87.77
2019-01-15T00:22:52.804Z,87.51
2019-01-15T00:23:58.812Z,87.79
2019-01-15T00:25:04.516Z,88.16
2019-01-15T00:26:10.876Z,88.78
2019-01-15T00:27:17.214Z,87.96
2019-01-15T00:28:23.243Z,88.32
2019-01-15T00:29:29.564Z,87.94
2019-01-15T00:30:35.945Z,88.12
2019-01-15T00:31:41.978Z,87.55
2019-01-15T00:32:48.348Z,87.48
2019-01-15T00:33:54.666Z,87.44
2019-01-15T00:35:01.726Z,87.71
2019-01-15T00:36:08.076Z,87.65
2019-01-15T00:37:14.401Z,88.12
2019-01-15T00:38:20.773Z,87.90
2019-01-15T00:39:27.178Z,87.64
2019-01-15T00:40:33.202Z,88.64
2019-01-15T00:41:39.640Z,89.01
2019-01-15T00:42:45.658Z,88.55
2019-01-15T00:43:52.130Z,87.93
2019-01-15T00:44:58.401Z,88.09
2019-01-15T00:46:04.750Z,88.10
2019-01-15T00:47:11.125Z,87.79
2019-01-15T00:48:17.436Z,87.56
2019-01-15T00:49:23.812Z,87.73
2019-01-15T00:50:29.781Z,87.63
2019-01-15T00:51:36.151Z,86.85
2019-01-15T00:52:42.203Z,87.27
2019-01-15T00:53:48.551Z,87.15
2019-01-15T00:54:54.849Z,86.40
2019-01-15T00:56:01.219Z,86.83
2019-01-15T00:57:07.606Z,87.58
2019-01-15T00:58:14.633Z,87.63
2019-01-15T00:59:21.303Z,87.17
2019-01-15T01:00:27.335Z,87.57
2019-01-15T01:01:33.709Z,87.38
2019-01-15T01:02:39.680Z,87.35
2019-01-15T01:03:46.054Z,87.83
2019-01-15T01:04:52.415Z,87.95
2019-01-15T01:05:58.923Z,87.84
2019-01-15T01:07:04.300Z,88.00
2019-01-15T01:08:10.330Z,88.97
2019-01-15T01:09:16.459Z,89.24
2019-01-15T01:10:22.060Z,88.93
2019-01-15T01:11:28.675Z,88.75
2019-01-15T01:12:35.046Z,88.79
2019-01-15T01:13:41.888Z,88.25
2019-01-15T01:14:48.300Z,88.92
2019-01-15T01:15:54.690Z,89.57
2019-01-15T01:17:00.671Z,89.79
2019-01-15T01:18:06.385Z,89.18
2019-01-15T01:19:14.595Z,89.14
2019-01-15T01:20:20.042Z,89.12
2019-01-15T01:21:26.443Z,89.25
2019-01-15T01:22:32.900Z,89.04
2019-01-15T01:23:39.291Z,89.18
2019-01-15T01:24:45.325Z,89.45
2019-01-15T01:25:51.680Z,90.12
2019-01-15T01:26:57.985Z,90.38
2019-01-15T01:28:03.817Z,89.95
2019-01-15T01:29:10.234Z,89.67
2019-01-15T01:30:15.796Z,89.87
2019-01-15T01:31:22.550Z,90.40
2019-01-15T01:32:28.897Z,90.44
2019-01-15T01:33:35.297Z,90.62
2019-01-15T01:34:41.691Z,90.95
2019-01-15T01:35:48.184Z,90.99
2019-01-15T01:36:54.524Z,90.33
2019-01-15T01:38:00.574Z,90.56
2019-01-15T01:39:06.010Z,90.70
2019-01-15T01:40:12.115Z,89.90
2019-01-15T01:41:19.070Z,88.59
2019-01-15T01:42:29.423Z,88.16
2019-01-15T01:43:31.874Z,88.61
2019-01-15T01:44:38.285Z,89.34
2019-01-15T01:45:44.703Z,89.26
2019-01-15T01:46:51.053Z,89.31
2019-01-15T01:47:57.753Z,89.65
2019-01-15T01:49:03.844Z,89.00
2019-01-15T01:50:09.566Z,89.18
2019-01-15T01:51:16.281Z,89.08
2019-01-15T01:52:22.643Z,90.03
2019-01-15T01:53:29.025Z,90.26
2019-01-15T01:54:35.000Z,90.45
2019-01-15T01:55:41.378Z,90.51
2019-01-15T01:56:47.443Z,90.29
2019-01-15T01:57:53.800Z,90.48
2019-01-15T01:59:00.203Z,90.45
2019-01-15T02:00:05.856Z,90.25
2019-01-15T02:01:13.000Z,90.23
2019-01-15T02:02:20.117Z,90.06
2019-01-15T02:03:26.500Z,89.98
2019-01-15T02:04:32.853Z,90.39
2019-01-15T02:05:39.314Z,90.81
2019-01-15T02:06:45.643Z,90.79
2019-01-15T02:07:51.665Z,90.24
2019-01-15T02:08:57.995Z,90.48
2019-01-15T02:10:03.710Z,90.26
2019-01-15T02:11:10.066Z,89.86
2019-01-15T02:12:16.458Z,89.91
2019-01-15T02:13:22.891Z,89.44
2019-01-15T02:14:29.265Z,89.32
2019-01-15T02:15:35.298Z,89.41
2019-01-15T02:16:41.738Z,90.11
2019-01-15T02:17:47.411Z,90.23
2019-01-15T02:18:53.757Z,90.41
2019-01-15T02:19:59.450Z,90.32
2019-01-15T02:21:05.494Z,90.83
2019-01-15T02:22:12.642Z,91.11
2019-01-15T02:23:19.513Z,90.35
2019-01-15T02:24:25.669Z,90.24
2019-01-15T02:25:32.082Z,90.05
2019-01-15T02:26:38.187Z,90.13
2019-01-15T02:27:44.280Z,90.36
2019-01-15T02:28:50.639Z,90.37
2019-01-15T02:29:56.963Z,91.25
2019-01-15T02:31:03.301Z,92.26
2019-01-15T02:32:09.635Z,92.26
2019-01-15T02:33:15.988Z,92.12
2019-01-15T02:34:22.024Z,92.19
2019-01-15T02:35:28.397Z,91.16
2019-01-15T02:36:34.805Z,90.91
2019-01-15T02:37:40.868Z,90.95
2019-01-15T02:38:47.372Z,91.12
2019-01-15T02:39:53.693Z,91.54
2019-01-15T02:40:59.696Z,91.58
2019-01-15T02:42:05.777Z,91.27
2019-01-15T02:43:12.487Z,91.14
2019-01-15T02:44:18.908Z,91.46
2019-01-15T02:45:24.945Z,91.21
2019-01-15T02:46:31.310Z,90.88
2019-01-15T02:47:37.284Z,91.00
2019-01-15T02:48:43.645Z,91.27
2019-01-15T02:49:49.698Z,90.81
2019-01-15T02:50:56.521Z,92.25
2019-01-15T02:52:02.545Z,92.71
2019-01-15T02:53:08.947Z,92.13
2019-01-15T02:54:15.406Z,91.20
2019-01-15T02:55:21.410Z,91.66
2019-01-15T02:56:27.755Z,91.71
2019-01-15T02:57:34.134Z,91.98
2019-01-15T02:58:40.600Z,91.94
2019-01-15T02:59:46.965Z,91.60
2019-01-15T03:00:53.276Z,91.55
2019-01-15T03:01:59.610Z,91.75
2019-01-15T03:03:05.649Z,91.66
2019-01-15T03:04:12.689Z,92.46
2019-01-15T03:05:18.837Z,92.46
2019-01-15T03:06:25.156Z,92.45
2019-01-15T03:07:31.108Z,92.58
2019-01-15T03:08:37.523Z,92.96
2019-01-15T03:09:43.954Z,92.84
2019-01-15T03:10:50.278Z,92.48
2019-01-15T03:11:56.685Z,91.89
2019-01-15T03:13:02.561Z,91.85
2019-01-15T03:14:08.644Z,92.53
2019-01-15T03:15:14.743Z,92.83
2019-01-15T03:16:21.061Z,92.80
2019-01-15T03:17:27.447Z,92.40
2019-01-15T03:18:34.059Z,91.98
2019-01-15T03:19:40.455Z,92.06
2019-01-15T03:20:46.880Z,91.71
2019-01-15T03:21:53.228Z,91.85
2019-01-15T03:22:59.602Z,92.02
2019-01-15T03:24:05.616Z,92.71
2019-01-15T03:25:13.231Z,92.59
2019-01-15T03:26:20.093Z,92.12
2019-01-15T03:27:26.473Z,92.25
2019-01-15T03:28:32.383Z,92.17
2019-01-15T03:29:38.790Z,92.16
2019-01-15T03:30:45.138Z,91.84
2019-01-15T03:31:51.493Z,91.53
2019-01-15T03:32:57.868Z,91.70
2019-01-15T03:34:03.871Z,92.41
2019-01-15T03:35:09.703Z,92.14
2019-01-15T03:36:15.992Z,92.72
2019-01-15T03:37:22.417Z,92.94
2019-01-15T03:38:28.439Z,93.35
2019-01-15T03:39:34.883Z,92.97
2019-01-15T03:40:41.393Z,92.57
2019-01-15T03:41:47.773Z,91.99
2019-01-15T03:42:53.806Z,91.08
2019-01-15T03:44:00.195Z,91.69
2019-01-15T03:45:05.980Z,91.94
2019-01-15T03:46:12.327Z,91.42
2019-01-15T03:47:18.818Z,90.96
2019-01-15T03:48:25.221Z,90.90
2019-01-15T03:49:31.596Z,91.36
2019-01-15T03:50:37.976Z,91.51
2019-01-15T03:51:44.328Z,90.60
2019-01-15T03:52:50.361Z,90.65
2019-01-15T03:53:56.741Z,90.67
2019-01-15T03:55:03.097Z,90.49
2019-01-15T03:56:09.173Z,90.66
2019-01-15T03:57:15.497Z,90.32
2019-01-15T03:58:21.827Z,89.93
2019-01-15T03:59:28.556Z,90.33
2019-01-15T04:00:34.932Z,91.03
2019-01-15T04:01:41.310Z,91.23
2019-01-15T04:02:47.099Z,90.81
2019-01-15T04:03:53.512Z,90.47
2019-01-15T04:04:59.698Z,90.66
2019-01-15T04:06:05.334Z,90.82
2019-01-15T04:07:11.441Z,90.51
2019-01-15T04:08:17.831Z,90.61
2019-01-15T04:09:24.183Z,90.79
2019-01-15T04:10:30.282Z,90.60
2019-01-15T04:11:36.600Z,89.93
2019-01-15T04:12:42.699Z,90.00
2019-01-15T04:13:49.060Z,90.18
2019-01-15T04:14:55.498Z,90.48
2019-01-15T04:16:01.920Z,90.54
2019-01-15T04:17:08.317Z,90.85
2019-01-15T04:18:14.670Z,91.24
2019-01-15T04:19:21.193Z,90.99
2019-01-15T04:20:26.885Z,91.02
2019-01-15T04:21:33.267Z,90.48
2019-01-15T04:22:39.705Z,90.63
2019-01-15T04:23:46.080Z,90.86
2019-01-15T04:24:52.507Z,90.86
2019-01-15T04:25:58.844Z,91.46
2019-01-15T04:27:04.516Z,91.75
2019-01-15T04:28:11.027Z,91.50
2019-01-15T04:29:18.105Z,91.41
2019-01-15T04:30:23.690Z,91.71
2019-01-15T04:31:29.681Z,91.69
2019-01-15T04:32:36.043Z,92.01
2019-01-15T04:33:42.426Z,91.68
2019-01-15T04:34:49.314Z,92.08
2019-01-15T04:35:55.621Z,91.73
2019-01-15T04:37:01.964Z,91.95
2019-01-15T04:38:08.327Z,91.67
2019-01-15T04:39:14.710Z,91.32
2019-01-15T04:40:20.400Z,91.25
2019-01-15T04:41:26.748Z,91.58
2019-01-15T04:42:33.144Z,91.91
2019-01-15T04:43:39.596Z,91.98
2019-01-15T04:44:45.970Z,91.51
2019-01-15T04:45:52.018Z,91.93
2019-01-15T04:46:58.433Z,91.74
2019-01-15T04:48:04.155Z,92.57
2019-01-15T04:49:10.497Z,93.00
2019-01-15T04:50:17.520Z,92.57
2019-01-15T04:51:24.338Z,92.37
2019-01-15T04:52:30.464Z,92.17
2019-01-15T04:53:36.831Z,91.44
2019-01-15T04:54:43.160Z,91.67
2019-01-15T04:55:49.527Z,92.23
2019-01-15T04:56:55.739Z,91.53
2019-01-15T04:58:01.467Z,91.47
2019-01-15T04:59:07.484Z,91.82
2019-01-15T05:00:13.106Z,91.76
2019-01-15T05:01:19.436Z,91.56
2019-01-15T05:02:25.869Z,91.47
2019-01-15T05:03:31.909Z,91.34
2019-01-15T05:04:38.325Z,91.60
2019-01-15T05:05:44.725Z,91.51
2019-01-15T05:06:51.037Z,91.72
2019-01-15T05:07:57.428Z,91.53
2019-01-15T05:09:03.233Z,91.03
2019-01-15T05:10:09.518Z,90.79
2019-01-15T05:11:16.015Z,90.70
2019-01-15T05:12:22.350Z,90.91
2019-01-15T05:13:28.806Z,91.33
2019-01-15T05:14:35.270Z,91.06
2019-01-15T05:15:42.409Z,90.33
2019-01-15T05:16:48.815Z,90.52
2019-01-15T05:17:54.764Z,91.26
2019-01-15T05:19:01.959Z,91.44
2019-01-15T05:20:07.820Z,91.18
2019-01-15T05:21:14.202Z,91.12
2019-01-15T05:22:20.599Z,91.38
2019-01-15T05:23:26.949Z,90.96
2019-01-15T05:24:33.305Z,90.87
2019-01-15T05:25:39.649Z,90.73
2019-01-15T05:26:45.997Z,90.73
2019-01-15T05:27:52.441Z,90.69
2019-01-15T05:28:58.782Z,90.64
2019-01-15T05:30:04.193Z,90.78
2019-01-15T05:31:10.567Z,90.81
2019-01-15T05:32:17.002Z,90.97
2019-01-15T05:33:23.386Z,91.47
2019-01-15T05:34:29.855Z,91.64
2019-01-15T05:35:36.267Z,91.53
2019-01-15T05:36:42.651Z,91.14
2019-01-15T05:37:48.284Z,91.12
2019-01-15T05:38:54.665Z,91.29
2019-01-15T05:40:00.956Z,91.56
2019-01-15T05:41:07.323Z,90.52
2019-01-15T05:42:13.649Z,90.53
2019-01-15T05:43:20.006Z,90.43
2019-01-15T05:44:26.360Z,90.27
2019-01-15T05:45:32.104Z,90.53
2019-01-15T05:46:38.930Z,90.89
2019-01-15T05:47:45.057Z,90.64
2019-01-15T05:48:51.434Z,90.41
2019-01-15T05:49:57.816Z,90.54
2019-01-15T05:51:04.706Z,91.26
2019-01-15T05:52:11.101Z,90.79
2019-01-15T05:53:17.441Z,91.06
2019-01-15T05:54:24.979Z,90.96
2019-01-15T05:55:33.447Z,90.85
2019-01-15T05:56:40.633Z,90.35
2019-01-15T05:57:47.035Z,90.22
2019-01-15T05:58:53.471Z,90.29
2019-01-15T06:00:00.617Z,89.82
2019-01-15T06:01:07.331Z,89.83
2019-01-15T06:02:14.143Z,89.75
2019-01-15T06:03:20.475Z,90.08
2019-01-15T06:04:26.828Z,90.15
2019-01-15T06:05:32.858Z,90.27
2019-01-15T06:06:39.319Z,91.05
2019-01-15T06:07:45.070Z,90.98
2019-01-15T06:08:51.394Z,90.82
2019-01-15T06:09:57.776Z,89.97
2019-01-15T06:11:03.791Z,90.14
2019-01-15T06:12:10.142Z,90.29
2019-01-15T06:13:16.517Z,90.38
2019-01-15T06:14:23.562Z,90.39
2019-01-15T06:15:30.641Z,90.28
2019-01-15T06:16:37.978Z,90.58
2019-01-15T06:17:43.616Z,90.42
2019-01-15T06:18:49.967Z,90.91
2019-01-15T06:19:56.868Z,90.59
2019-01-15T06:21:03.223Z,90.48
2019-01-15T06:22:09.593Z,90.40
2019-01-15T06:23:15.928Z,91.01
2019-01-15T06:24:22.293Z,90.74
2019-01-15T06:25:28.722Z,90.58
2019-01-15T06:26:35.097Z,90.33
2019-01-15T06:27:40.879Z,90.33
2019-01-15T06:28:47.003Z,90.63
2019-01-15T06:29:53.470Z,90.99
2019-01-15T06:30:59.590Z,91.37
2019-01-15T06:32:05.936Z,90.91
2019-01-15T06:33:12.262Z,90.88
2019-01-15T06:34:18.620Z,90.48
2019-01-15T06:35:24.953Z,90.40
2019-01-15T06:36:31.302Z,90.62
2019-01-15T06:37:37.274Z,90.60
2019-01-15T06:38:43.657Z,90.35
2019-01-15T06:39:50.102Z,90.20
2019-01-15T06:40:55.779Z,90.33
2019-01-15T06:42:01.809Z,90.36
2019-01-15T06:43:08.622Z,90.15
2019-01-15T06:44:14.969Z,90.21
2019-01-15T06:45:35.549Z,89.99
2019-01-15T06:46:42.916Z,90.46
2019-01-15T06:47:48.579Z,90.16
2019-01-15T06:48:54.905Z,90.17
2019-01-15T06:50:01.270Z,89.92
2019-01-15T06:51:07.316Z,90.05
2019-01-15T06:52:13.645Z,89.80
2019-01-15T06:53:19.991Z,89.78
2019-01-15T06:54:26.355Z,89.34
2019-01-15T06:55:32.345Z,88.89
2019-01-15T06:56:38.319Z,88.81
2019-01-15T06:57:44.350Z,88.66
2019-01-15T06:58:50.721Z,88.61
2019-01-15T06:59:57.707Z,88.61
2019-01-15T07:01:03.890Z,88.52
2019-01-15T07:02:10.293Z,88.70
2019-01-15T07:03:16.269Z,89.30
2019-01-15T07:04:22.625Z,89.06
2019-01-15T07:05:28.699Z,88.76
2019-01-15T07:06:35.496Z,88.86
2019-01-15T07:07:41.472Z,88.81
2019-01-15T07:08:47.790Z,88.49
2019-01-15T07:09:54.150Z,88.46
2019-01-15T07:11:00.453Z,88.17
2019-01-15T07:12:06.882Z,87.92
2019-01-15T07:13:13.349Z,88.22
2019-01-15T07:14:19.701Z,88.36
2019-01-15T07:15:26.046Z,87.76
2019-01-15T07:16:32.145Z,88.09
2019-01-15T07:17:38.131Z,87.44
2019-01-15T07:18:44.426Z,87.42
2019-01-15T07:19:50.770Z,86.94
2019-01-15T07:20:58.015Z,87.40
2019-01-15T07:22:03.911Z,87.06
2019-01-15T07:23:10.237Z,87.37
2019-01-15T07:24:16.373Z,87.18
2019-01-15T07:25:22.048Z,86.57
2019-01-15T07:26:28.085Z,86.18
2019-01-15T07:27:34.606Z,85.90
2019-01-15T07:28:40.633Z,86.29
2019-01-15T07:29:46.624Z,85.79
2019-01-15T07:30:52.277Z,85.31
2019-01-15T07:31:58.677Z,84.88
2019-01-15T07:33:04.338Z,84.49
2019-01-15T07:34:10.701Z,84.10
2019-01-15T07:35:17.103Z,84.70
2019-01-15T07:36:23.414Z,84.35
2019-01-15T07:37:29.744Z,84.25
2019-01-15T07:38:36.083Z,84.93
2019-01-15T07:39:42.472Z,84.83
2019-01-15T07:40:48.797Z,85.05
2019-01-15T07:41:55.738Z,84.91
2019-01-15T07:43:02.885Z,84.44
2019-01-15T07:44:09.320Z,84.27
2019-01-15T07:45:15.416Z,84.68
2019-01-15T07:46:21.862Z,84.81
2019-01-15T07:47:27.866Z,84.37
2019-01-15T07:48:34.199Z,84.64
2019-01-15T07:49:40.574Z,84.23
2019-01-15T07:50:46.584Z,84.35
2019-01-15T07:51:52.900Z,84.86
2019-01-15T07:52:58.850Z,84.19
2019-01-15T07:54:04.531Z,84.25
2019-01-15T07:55:10.195Z,83.90
2019-01-15T07:56:16.587Z,83.51
2019-01-15T07:57:22.951Z,84.07
2019-01-15T07:58:29.278Z,84.19
2019-01-15T07:59:35.705Z,84.08
2019-01-15T08:00:41.748Z,84.16
2019-01-15T08:01:47.864Z,84.71
2019-01-15T08:02:53.511Z,84.72
2019-01-15T08:04:00.677Z,84.19
2019-01-15T08:05:06.897Z,84.29
2019-01-15T08:06:13.242Z,84.60
2019-01-15T08:07:19.213Z,85.02
2019-01-15T08:08:25.594Z,84.67
2019-01-15T08:09:32.781Z,84.64
2019-01-15T08:10:39.210Z,84.46
2019-01-15T08:11:45.552Z,84.47
2019-01-15T08:12:51.567Z,84.47
2019-01-15T08:13:58.742Z,84.01
2019-01-15T08:15:04.441Z,84.58
2019-01-15T08:16:10.470Z,85.10
2019-01-15T08:17:16.780Z,84.68
2019-01-15T08:18:23.150Z,84.87
2019-01-15T08:19:29.556Z,85.91
2019-01-15T08:20:35.561Z,85.96
2019-01-15T08:21:41.878Z,85.61
2019-01-15T08:22:47.918Z,84.94
2019-01-15T08:23:54.231Z,84.33
2019-01-15T08:25:02.206Z,84.51
2019-01-15T08:26:08.823Z,84.82
2019-01-15T08:27:15.175Z,84.71
2019-01-15T08:28:21.496Z,84.70
2019-01-15T08:29:27.820Z,84.84
2019-01-15T08:30:34.219Z,84.98
2019-01-15T08:31:40.561Z,84.94
2019-01-15T08:32:46.508Z,85.25
2019-01-15T08:33:52.889Z,85.42
2019-01-15T08:34:59.780Z,85.31
2019-01-15T08:36:05.433Z,85.06
2019-01-15T08:37:11.739Z,84.89
2019-01-15T08:38:18.094Z,85.11
2019-01-15T08:39:24.966Z,85.36
2019-01-15T08:40:31.356Z,85.08
2019-01-15T08:41:37.740Z,85.28
2019-01-15T08:42:43.411Z,85.59
2019-01-15T08:43:49.766Z,85.98
2019-01-15T08:44:55.948Z,85.70
2019-01-15T08:46:02.484Z,85.47
2019-01-15T08:47:08.816Z,85.52
2019-01-15T08:48:15.003Z,85.17
2019-01-15T08:49:21.380Z,84.98
2019-01-15T08:50:31.240Z,85.19
2019-01-15T08:51:37.354Z,85.16
2019-01-15T08:52:43.725Z,85.34
2019-01-15T08:53:49.789Z,86.13
2019-01-15T08:54:56.161Z,86.18
2019-01-15T08:56:02.273Z,86.67
2019-01-15T08:57:08.669Z,86.35
2019-01-15T08:58:15.984Z,86.14
2019-01-15T08:59:22.308Z,86.19
2019-01-15T09:00:28.684Z,86.26
2019-01-15T09:01:34.996Z,86.05
2019-01-15T09:02:41.966Z,85.75
2019-01-15T09:03:48.795Z,86.78
2019-01-15T09:04:55.144Z,87.36
2019-01-15T09:06:01.488Z,87.33
2019-01-15T09:07:07.840Z,87.70
2019-01-15T09:08:14.208Z,88.78
2019-01-15T09:09:20.722Z,89.14
2019-01-15T09:10:26.723Z,90.45
2019-01-15T09:11:33.586Z,91.10
2019-01-15T09:12:39.613Z,91.46
2019-01-15T09:13:45.914Z,91.71
2019-01-15T09:14:52.031Z,91.22
2019-01-15T09:15:58.371Z,90.29
2019-01-15T09:17:10.947Z,89.77
2019-01-15T09:18:11.686Z,89.95
2019-01-15T09:19:17.701Z,89.69
2019-01-15T09:20:23.682Z,90.14
2019-01-15T09:21:30.045Z,90.09
2019-01-15T09:22:36.368Z,90.97
2019-01-15T09:23:42.679Z,91.62
2019-01-15T09:24:49.021Z,91.29
2019-01-15T09:25:54.711Z,89.71
2019-01-15T09:27:01.106Z,89.24
2019-01-15T09:28:07.491Z,89.18
2019-01-15T09:29:13.473Z,89.07
2019-01-15T09:30:19.591Z,89.28
2019-01-15T09:31:25.897Z,88.62
2019-01-15T09:32:31.990Z,88.73
2019-01-15T09:33:37.958Z,88.89
2019-01-15T09:34:44.422Z,88.96
2019-01-15T09:35:50.428Z,88.71
2019-01-15T09:36:56.835Z,88.57
2019-01-15T09:38:02.626Z,88.98
2019-01-15T09:39:08.377Z,88.88
2019-01-15T09:40:15.284Z,89.08
2019-01-15T09:41:21.713Z,88.67
2019-01-15T09:42:28.100Z,88.83
2019-01-15T09:43:35.213Z,88.67
2019-01-15T09:44:41.421Z,88.34
2019-01-15T09:45:47.475Z,88.51
2019-01-15T09:46:53.505Z,88.87
2019-01-15T09:47:59.396Z,88.68
2019-01-15T09:49:06.673Z,88.88
2019-01-15T09:50:12.798Z,88.56
2019-01-15T09:51:19.154Z,88.84
2019-01-15T09:52:25.501Z,87.79
2019-01-15T09:53:31.860Z,87.56
2019-01-15T09:54:37.826Z,87.34
2019-01-15T09:55:44.250Z,87.78
2019-01-15T09:56:50.568Z,87.98
2019-01-15T09:57:56.957Z,87.70
2019-01-15T09:59:03.297Z,87.95
2019-01-15T10:00:10.764Z,87.81
2019-01-15T10:01:17.295Z,87.39
2019-01-15T10:02:24.114Z,87.24
2019-01-15T10:03:29.730Z,86.92
2019-01-15T10:04:36.105Z,87.18
2019-01-15T10:05:42.466Z,87.26
2019-01-15T10:06:48.992Z,87.68
2019-01-15T10:07:55.342Z,87.70
2019-01-15T10:09:01.368Z,88.27
2019-01-15T10:10:08.750Z,87.82
2019-01-15T10:11:15.063Z,88.33
2019-01-15T10:12:21.400Z,88.28
2019-01-15T10:13:27.726Z,88.83
2019-01-15T10:14:41.029Z,87.81
2019-01-15T10:15:40.434Z,87.45
2019-01-15T10:16:46.826Z,87.82
2019-01-15T10:17:52.865Z,87.70
2019-01-15T10:18:59.211Z,87.45
2019-01-15T10:20:04.953Z,87.22
2019-01-15T10:21:11.312Z,87.49
2019-01-15T10:22:17.151Z,88.17
2019-01-15T10:23:23.128Z,87.50
2019-01-15T10:24:29.355Z,87.27
2019-01-15T10:25:35.433Z,87.36
2019-01-15T10:26:41.763Z,87.24
2019-01-15T10:27:47.885Z,87.14
2019-01-15T10:28:54.190Z,87.07
2019-01-15T10:30:00.289Z,87.39
2019-01-15T10:31:09.624Z,87.34
2019-01-15T10:32:27.233Z,87.55
2019-01-15T10:33:33.022Z,87.53
2019-01-15T10:34:38.723Z,87.87
2019-01-15T10:35:51.704Z,87.12
2019-01-15T10:36:56.825Z,87.41
2019-01-15T10:38:03.437Z,87.39
2019-01-15T10:39:08.803Z,87.25
2019-01-15T10:40:15.137Z,86.68
2019-01-15T10:41:21.486Z,86.95
2019-01-15T10:42:27.789Z,87.75
2019-01-15T10:43:33.449Z,87.54
2019-01-15T10:44:39.481Z,87.04
2019-01-15T10:45:45.936Z,86.52
2019-01-15T10:46:52.353Z,86.67
2019-01-15T10:47:58.704Z,86.23
2019-01-15T10:49:04.403Z,86.96
2019-01-15T10:50:10.090Z,87.01
2019-01-15T10:51:16.439Z,87.10
2019-01-15T10:52:22.842Z,87.63
2019-01-15T10:53:28.914Z,87.85
2019-01-15T10:54:35.379Z,88.67
2019-01-15T10:55:41.758Z,88.28
2019-01-15T10:56:48.596Z,87.63
2019-01-15T10:57:55.011Z,86.97
2019-01-15T10:59:01.361Z,87.07
2019-01-15T11:00:07.084Z,87.60
2019-01-15T11:01:13.428Z,87.64
2019-01-15T11:02:19.822Z,88.19
2019-01-15T11:03:25.811Z,87.74
2019-01-15T11:04:32.193Z,88.23
2019-01-15T11:05:38.151Z,88.53
2019-01-15T11:06:44.520Z,89.24
2019-01-15T11:07:50.913Z,88.89
2019-01-15T11:08:57.261Z,88.42
2019-01-15T11:10:03.026Z,88.62
2019-01-15T11:11:09.394Z,88.78
2019-01-15T11:12:15.828Z,89.21
2019-01-15T11:13:22.419Z,89.81
2019-01-15T11:14:28.593Z,90.40
2019-01-15T11:15:34.645Z,89.95
2019-01-15T11:16:40.964Z,90.07
2019-01-15T11:17:47.330Z,90.16
2019-01-15T11:18:53.359Z,89.27
2019-01-15T11:19:59.787Z,89.27
2019-01-15T11:21:06.911Z,89.74
2019-01-15T11:22:12.884Z,90.09
2019-01-15T11:23:19.184Z,90.21
2019-01-15T11:24:25.555Z,90.62
2019-01-15T11:25:32.086Z,90.09
2019-01-15T11:26:38.446Z,89.86
2019-01-15T11:27:44.552Z,89.60
2019-01-15T11:28:50.883Z,89.69
2019-01-15T11:29:57.230Z,89.36
2019-01-15T11:31:03.261Z,89.50
2019-01-15T11:32:10.777Z,90.36
2019-01-15T11:33:16.005Z,90.68
2019-01-15T11:34:21.989Z,90.93
2019-01-15T11:35:28.920Z,91.14
2019-01-15T11:36:35.684Z,91.59
2019-01-15T11:37:41.351Z,91.58
2019-01-15T11:38:47.695Z,90.59
2019-01-15T11:39:54.307Z,90.24
2019-01-15T11:41:00.351Z,90.08
2019-01-15T11:42:06.713Z,89.78
2019-01-15T11:43:13.091Z,89.73
2019-01-15T11:44:19.213Z,89.42
2019-01-15T11:45:25.562Z,89.35
2019-01-15T11:46:31.997Z,89.91
2019-01-15T11:47:38.027Z,90.65
2019-01-15T11:48:44.398Z,91.28
2019-01-15T11:49:50.734Z,90.83
2019-01-15T11:50:57.096Z,90.35
2019-01-15T11:52:03.451Z,90.77
2019-01-15T11:53:09.459Z,90.79
2019-01-15T11:54:15.830Z,90.05
2019-01-15T11:55:22.175Z,89.87
2019-01-15T11:56:28.524Z,90.12
2019-01-15T11:57:34.934Z,89.82
2019-01-15T11:58:41.067Z,90.13
2019-01-15T11:59:47.382Z,90.21
2019-01-15T12:00:53.497Z,90.69
2019-01-15T12:01:59.624Z,90.45
2019-01-15T12:04:44.020Z,90.63
2019-01-15T12:05:55.818Z,90.78
2019-01-15T12:07:07.537Z,90.32
2019-01-15T12:08:18.764Z,90.55
2019-01-15T12:09:27.987Z,90.20
2019-01-15T12:10:39.433Z,89.65
2019-01-15T12:11:56.229Z,89.73
2019-01-15T12:13:04.805Z,89.62
2019-01-15T12:14:16.569Z,89.58
2019-01-15T12:15:22.682Z,89.88
2019-01-15T12:16:29.348Z,90.31
2019-01-15T12:17:37.067Z,90.18
2019-01-15T12:18:48.619Z,89.79
2019-01-15T12:19:56.395Z,89.72
2019-01-15T12:21:05.544Z,90.11
2019-01-15T12:22:17.097Z,90.57
2019-01-15T12:23:33.754Z,90.40
2019-01-15T12:24:40.296Z,90.36
2019-01-15T12:38:17.826Z,90.46
2019-01-15T12:39:51.018Z,90.08
2019-01-15T12:41:03.478Z,90.46
2019-01-15T12:42:18.191Z,91.00
2019-01-15T12:44:58.283Z,90.68
2019-01-15T12:46:06.488Z,90.82
2019-01-15T13:10:06.608Z,92.56
2019-01-15T13:11:16.364Z,91.84
2019-01-15T13:12:28.014Z,92.33
2019-01-15T13:13:46.890Z,92.65
2019-01-15T13:15:08.918Z,92.35
2019-01-15T13:16:19.894Z,92.17
2019-01-15T13:19:20.056Z,91.26
2019-01-15T13:20:57.458Z,91.65
2019-01-15T13:22:19.879Z,92.14
2019-01-15T13:23:41.171Z,91.94
2019-01-15T13:24:50.080Z,91.91
2019-01-15T13:26:01.138Z,92.20
2019-01-15T13:27:06.887Z,91.86
2019-01-15T13:28:12.980Z,91.24
2019-01-15T13:29:24.645Z,91.22
2019-01-15T13:32:26.040Z,91.59
2019-01-15T13:33:37.961Z,90.73
2019-01-15T13:34:48.471Z,90.66
2019-01-15T13:35:58.706Z,90.78
2019-01-15T13:37:19.712Z,90.87
2019-01-15T13:38:56.682Z,90.46
2019-01-15T13:40:31.242Z,90.20
2019-01-15T13:42:02.734Z,90.67
2019-01-15T13:43:20.129Z,89.85
2019-01-15T13:44:28.154Z,89.79
2019-01-15T13:45:41.732Z,89.90
2019-01-15T13:46:49.689Z,90.27
2019-01-15T13:47:55.801Z,89.96
2019-01-15T13:49:11.843Z,90.18
2019-01-15T13:50:19.261Z,89.55
2019-01-15T13:51:31.079Z,89.89
2019-01-15T13:54:25.976Z,89.59
2019-01-15T13:56:01.942Z,90.35
2019-01-15T13:57:09.027Z,90.28
2019-01-15T13:58:27.093Z,90.19
2019-01-15T13:59:36.018Z,90.63
2019-01-15T14:00:56.981Z,89.91
2019-01-15T14:02:17.060Z,90.19
2019-01-15T14:03:28.819Z,89.93
2019-01-15T14:04:50.581Z,90.54
2019-01-15T14:05:59.714Z,90.48
2019-01-15T14:07:22.463Z,90.31
2019-01-15T14:08:29.131Z,90.21
2019-01-15T14:09:54.526Z,90.10
2019-01-15T14:11:03.508Z,90.31
2019-01-15T14:12:12.058Z,90.52
2019-01-15T14:13:32.051Z,90.91
2019-01-15T14:14:43.642Z,91.06
2019-01-15T14:17:36.035Z,91.17
2019-01-15T14:18:46.991Z,90.82
2019-01-15T14:42:39.844Z,91.20
2019-01-15T14:43:49.507Z,91.54
2019-01-15T14:46:33.651Z,91.02
2019-01-15T14:47:40.113Z,91.23
2019-01-15T14:48:47.166Z,91.51
2019-01-15T14:49:55.819Z,91.54
2019-01-15T14:51:02.824Z,91.87
2019-01-15T14:52:08.607Z,92.14
2019-01-15T14:53:27.204Z,91.95
2019-01-15T15:06:46.745Z,92.77
2019-01-15T15:07:55.418Z,93.64
2019-01-15T15:10:43.747Z,93.96
2019-01-15T15:13:28.769Z,93.34
2019-01-15T15:14:36.071Z,93.22
2019-01-15T15:17:35.173Z,93.35
2019-01-15T15:19:00.708Z,92.90
2019-01-15T15:20:06.207Z,93.16
2019-01-15T15:21:18.020Z,93.57
2019-01-15T15:22:24.120Z,92.78
2019-01-15T15:23:34.821Z,92.70
2019-01-15T15:26:15.944Z,92.68
2019-01-15T15:27:26.820Z,93.00
2019-01-15T15:28:36.534Z,92.43
2019-01-15T15:29:48.528Z,92.37
2019-01-15T15:30:54.859Z,92.73
2019-01-15T15:32:03.400Z,92.47
2019-01-15T15:33:27.172Z,92.24
2019-01-15T15:34:33.779Z,93.23
2019-01-15T15:35:45.468Z,93.24
2019-01-15T15:36:57.303Z,93.02
2019-01-15T15:38:05.352Z,92.61
2019-01-15T15:39:13.946Z,92.73
2019-01-15T15:40:32.810Z,92.48
2019-01-15T15:41:44.975Z,92.46
2019-01-15T15:43:01.936Z,92.86
2019-01-15T15:44:13.677Z,93.09
2019-01-15T15:45:23.351Z,93.77
2019-01-15T15:46:45.279Z,93.93
2019-01-15T15:49:34.857Z,93.52
2019-01-15T15:50:46.616Z,93.77
2019-01-15T15:51:58.283Z,93.64
2019-01-15T15:53:07.748Z,93.84
2019-01-15T15:54:20.711Z,93.97
2019-01-15T15:55:32.734Z,94.23
2019-01-15T15:56:44.571Z,93.96
2019-01-15T15:57:51.470Z,93.43